createdAt,value
2019-05-22T00:00:57.987Z,32.03
2019-05-22T00:03:32.953Z,31.67
2019-05-22T00:06:05.976Z,32.47
2019-05-22T00:08:37.516Z,31.80
2019-05-22T00:11:08.835Z,32.60
2019-05-22T00:13:40.651Z,33.33
2019-05-22T00:16:11.615Z,32.60
2019-05-22T00:18:42.036Z,32.37
2019-05-22T00:21:12.775Z,33.23
2019-05-22T00:23:43.769Z,31.20
2019-05-22T00:26:14.806Z,30.80
2019-05-22T00:28:46.558Z,29.53
2019-05-22T00:31:18.532Z,29.77
2019-05-22T00:33:49.115Z,27.70
2019-05-22T00:36:21.454Z,27.07
2019-05-22T00:38:50.808Z,26.33
2019-05-22T00:41:23.092Z,25.80
2019-05-22T00:43:53.120Z,23.87
2019-05-22T00:46:24.032Z,22.03
2019-05-22T00:48:54.195Z,22.10
2019-05-22T00:51:48.153Z,21.00
2019-05-22T00:54:34.673Z,21.00
2019-05-22T00:57:22.029Z,20.00
2019-05-22T00:59:54.505Z,18.63
2019-05-22T01:02:27.956Z,18.77
2019-05-22T01:04:59.783Z,19.07
2019-05-22T01:07:30.669Z,18.37
2019-05-22T01:10:02.070Z,19.27
2019-05-22T01:12:33.496Z,16.70
2019-05-22T01:15:09.003Z,18.50
2019-05-22T01:17:41.541Z,17.40
2019-05-22T01:20:18.988Z,17.23
2019-05-22T01:22:49.759Z,18.70
2019-05-22T01:25:21.940Z,17.73
2019-05-22T01:27:51.416Z,18.03
2019-05-22T01:30:40.112Z,18.43
2019-05-22T01:33:12.037Z,19.50
2019-05-22T01:35:44.475Z,18.83
2019-05-22T01:38:15.559Z,20.30
2019-05-22T01:40:53.499Z,21.93
2019-05-22T01:43:25.931Z,21.50
2019-05-22T01:45:54.687Z,23.30
2019-05-22T01:48:33.328Z,24.93
2019-05-22T01:51:03.671Z,27.00
2019-05-22T01:53:38.475Z,26.63
2019-05-22T01:56:12.333Z,28.30
2019-05-22T01:58:45.468Z,29.33
2019-05-22T02:01:21.689Z,29.73
2019-05-22T02:03:54.271Z,32.83
2019-05-22T02:06:26.624Z,33.67
2019-05-22T02:09:11.055Z,34.23
2019-05-22T02:11:40.838Z,34.50
2019-05-22T02:14:14.155Z,35.33
2019-05-22T02:16:56.322Z,34.50
2019-05-22T02:19:20.212Z,37.57
2019-05-22T02:21:50.242Z,36.27
2019-05-22T02:24:20.295Z,36.93
2019-05-22T02:26:50.149Z,36.33
2019-05-22T02:29:22.155Z,37.03
2019-05-22T02:31:55.535Z,35.63
2019-05-22T02:34:25.022Z,35.80
2019-05-22T02:36:56.222Z,36.23
2019-05-22T02:39:30.615Z,36.63
2019-05-22T02:42:05.469Z,36.77
2019-05-22T02:44:34.980Z,35.03
2019-05-22T02:47:18.121Z,35.13
2019-05-22T02:49:36.933Z,33.27
2019-05-22T02:52:08.906Z,32.90
2019-05-22T02:54:39.517Z,32.17
2019-05-22T02:57:11.403Z,32.43
2019-05-22T02:59:43.165Z,31.30
2019-05-22T03:02:14.441Z,30.23
2019-05-22T03:04:57.602Z,30.00
2019-05-22T03:07:27.459Z,28.83
2019-05-22T03:09:58.933Z,29.20
2019-05-22T03:12:30.543Z,28.57
2019-05-22T03:15:02.137Z,27.23
2019-05-22T03:17:33.604Z,26.77
2019-05-22T03:20:09.166Z,28.90
2019-05-22T03:22:46.455Z,29.43
2019-05-22T03:25:20.004Z,29.60
2019-05-22T03:27:53.932Z,30.60
2019-05-22T03:30:31.275Z,29.97
2019-05-22T03:33:04.124Z,31.07
2019-05-22T03:35:42.337Z,28.03
2019-05-22T03:38:31.356Z,28.90
2019-05-22T03:41:00.983Z,30.33
2019-05-22T03:43:31.877Z,30.03
2019-05-22T03:46:05.212Z,28.97
2019-05-22T03:48:36.509Z,29.00
2019-05-22T03:51:12.723Z,30.73
2019-05-22T03:53:43.782Z,29.53
2019-05-22T03:56:15.173Z,31.13
2019-05-22T03:58:44.532Z,30.67
2019-05-22T04:01:14.704Z,34.17
2019-05-22T04:03:45.680Z,33.00
2019-05-22T04:06:16.179Z,31.43
2019-05-22T04:08:46.072Z,30.50
2019-05-22T04:11:16.935Z,30.20
2019-05-22T04:13:46.695Z,30.37
2019-05-22T04:16:18.795Z,30.47
2019-05-22T04:18:48.341Z,29.90
2019-05-22T04:21:17.810Z,30.53
2019-05-22T04:23:47.259Z,31.20
2019-05-22T04:26:18.440Z,29.67
2019-05-22T04:28:52.959Z,29.97
2019-05-22T04:31:34.107Z,31.07
2019-05-22T04:34:04.956Z,29.27
2019-05-22T04:36:34.655Z,28.50
2019-05-22T04:39:09.276Z,28.10
2019-05-22T04:41:39.237Z,27.63
2019-05-22T04:44:08.573Z,26.63
2019-05-22T04:46:37.905Z,26.33
2019-05-22T04:49:07.635Z,27.63
2019-05-22T04:51:37.289Z,25.97
2019-05-22T04:54:06.543Z,25.93
2019-05-22T04:56:36.065Z,25.47
2019-05-22T04:59:06.235Z,24.50
2019-05-22T05:01:36.393Z,24.57
2019-05-22T05:04:06.763Z,24.70
2019-05-22T05:06:37.667Z,22.37
2019-05-22T05:09:12.331Z,21.80
2019-05-22T05:11:42.397Z,20.83
2019-05-22T05:14:11.800Z,21.07
2019-05-22T05:16:42.129Z,19.97
2019-05-22T05:19:11.587Z,18.33
2019-05-22T05:21:40.907Z,19.27
2019-05-22T05:24:10.245Z,19.87
2019-05-22T05:26:40.193Z,20.67
2019-05-22T05:29:29.167Z,19.73
2019-05-22T05:31:59.160Z,18.67
2019-05-22T05:34:38.338Z,18.00
2019-05-22T05:37:08.784Z,17.33
2019-05-22T05:40:25.233Z,17.47
2019-05-22T05:42:55.814Z,15.47
2019-05-22T05:45:26.795Z,15.80
2019-05-22T05:47:57.159Z,15.77
2019-05-22T05:50:38.738Z,16.03
2019-05-22T05:53:01.952Z,16.03
2019-05-22T05:55:58.756Z,17.30
2019-05-22T05:58:30.165Z,16.47
2019-05-22T06:01:13.115Z,16.60
2019-05-22T06:03:43.264Z,15.27
2019-05-22T06:07:09.189Z,14.43
2019-05-22T06:09:39.133Z,14.70
2019-05-22T06:12:12.183Z,14.37
2019-05-22T06:14:43.007Z,13.67
2019-05-22T06:17:50.578Z,13.70
2019-05-22T06:20:20.288Z,13.87
2019-05-22T06:23:48.232Z,14.93
2019-05-22T06:26:49.968Z,15.63
2019-05-22T06:29:21.813Z,15.23
2019-05-22T06:32:41.283Z,16.63
2019-05-22T06:35:12.265Z,16.37
2019-05-22T06:37:53.755Z,15.23
2019-05-22T06:40:26.573Z,15.80
2019-05-22T06:43:52.040Z,15.53
2019-05-22T06:46:44.036Z,16.10
2019-05-22T06:49:42.496Z,15.47
2019-05-22T06:52:11.853Z,15.53
2019-05-22T06:54:41.244Z,15.97
2019-05-22T06:57:15.908Z,15.97
2019-05-22T06:59:46.837Z,15.30
2019-05-22T07:02:19.379Z,15.27
2019-05-22T07:04:49.532Z,13.70
2019-05-22T07:07:20.079Z,13.37
2019-05-22T07:09:50.555Z,14.30
2019-05-22T07:12:23.117Z,12.60
2019-05-22T07:15:20.328Z,12.30
2019-05-22T07:17:53.655Z,12.73
2019-05-22T07:20:24.151Z,14.10
2019-05-22T07:22:54.973Z,11.57
2019-05-22T07:25:26.992Z,10.67
2019-05-22T07:27:57.326Z,9.60
2019-05-22T07:30:26.713Z,8.80
2019-05-22T07:32:56.555Z,8.80
2019-05-22T07:35:44.151Z,8.30
2019-05-22T07:37:58.539Z,9.77
2019-05-22T07:40:28.015Z,9.67
2019-05-22T07:42:57.819Z,10.53
2019-05-22T07:45:28.218Z,10.40
2019-05-22T07:47:58.725Z,10.00
2019-05-22T07:50:30.828Z,9.30
2019-05-22T07:53:00.516Z,8.83
2019-05-22T07:55:32.639Z,9.30
2019-05-22T07:58:17.008Z,8.67
2019-05-22T08:00:53.882Z,8.53
2019-05-22T08:03:25.052Z,9.73
2019-05-22T08:05:56.152Z,9.43
2019-05-22T08:08:27.600Z,9.70
2019-05-22T08:10:58.120Z,9.80
2019-05-22T08:13:28.423Z,9.93
2019-05-22T08:15:58.238Z,10.27
2019-05-22T08:18:30.403Z,10.13
2019-05-22T08:21:00.076Z,9.53
2019-05-22T08:23:29.740Z,11.23
2019-05-22T08:26:00.445Z,10.87
2019-05-22T08:28:33.289Z,12.50
2019-05-22T08:31:05.415Z,14.53
2019-05-22T08:33:36.620Z,14.07
2019-05-22T08:36:06.759Z,15.13
2019-05-22T08:38:36.613Z,15.50
2019-05-22T08:41:09.233Z,15.73
2019-05-22T08:44:03.478Z,15.80
2019-05-22T08:46:13.004Z,17.43
2019-05-22T08:48:48.029Z,17.00
2019-05-22T08:51:14.288Z,17.50
2019-05-22T08:53:47.836Z,19.33
2019-05-22T08:56:15.453Z,18.30
2019-05-22T08:58:45.092Z,18.20
2019-05-22T09:03:49.126Z,17.77
2019-05-22T09:06:18.601Z,18.07
2019-05-22T09:08:48.225Z,17.00
2019-05-22T09:11:17.467Z,17.10
2019-05-22T09:13:46.791Z,18.40
2019-05-22T09:16:16.675Z,17.73
2019-05-22T09:18:46.086Z,19.40
2019-05-22T09:21:15.547Z,18.40
2019-05-22T09:23:45.681Z,18.57
2019-05-22T09:26:15.361Z,19.30
2019-05-22T09:28:44.642Z,18.97
2019-05-22T09:31:14.042Z,19.30
2019-05-22T09:33:43.380Z,19.10
2019-05-22T09:36:13.445Z,20.27
2019-05-22T09:38:42.932Z,19.93
2019-05-22T09:41:12.286Z,21.33
2019-05-22T09:43:41.751Z,21.43
2019-05-22T09:46:12.016Z,32.90
2019-05-22T09:48:41.779Z,23.13
2019-05-22T09:51:11.504Z,23.37
2019-05-22T09:53:40.914Z,23.70
2019-05-22T09:56:10.439Z,22.10
2019-05-22T09:58:39.988Z,23.70
2019-05-22T10:01:11.883Z,24.20
2019-05-22T10:03:41.667Z,25.00
2019-05-22T10:06:11.708Z,26.00
2019-05-22T10:08:41.153Z,26.37
2019-05-22T10:11:10.431Z,25.17
2019-05-22T10:13:39.979Z,26.37
2019-05-22T10:16:09.392Z,25.33
2019-05-22T10:18:38.705Z,26.80
2019-05-22T10:21:09.499Z,27.43
2019-05-22T10:23:39.214Z,26.93
2019-05-22T10:26:09.520Z,27.03
2019-05-22T10:28:39.542Z,28.00
2019-05-22T10:31:10.820Z,27.77
2019-05-22T10:33:41.669Z,27.33
2019-05-22T10:36:10.940Z,26.60
2019-05-22T10:38:40.426Z,27.03
2019-05-22T10:41:09.941Z,27.13
2019-05-22T10:43:39.283Z,27.43
2019-05-22T10:46:09.575Z,27.53
2019-05-22T10:48:40.515Z,27.30
2019-05-22T10:51:10.017Z,28.03
2019-05-22T10:53:39.807Z,27.57
2019-05-22T10:56:09.914Z,27.53
2019-05-22T10:58:39.975Z,25.13
2019-05-22T11:01:09.994Z,25.97
2019-05-22T11:03:39.441Z,24.90
2019-05-22T11:06:09.349Z,24.40
2019-05-22T11:08:39.541Z,24.97
2019-05-22T11:11:10.283Z,23.80
2019-05-22T11:13:40.465Z,23.53
2019-05-22T11:16:10.724Z,24.33
2019-05-22T11:18:40.888Z,23.07
2019-05-22T11:21:10.304Z,22.50
2019-05-22T11:23:51.155Z,19.43
2019-05-22T11:26:11.150Z,20.17
2019-05-22T11:28:40.892Z,20.13
2019-05-22T11:31:11.891Z,20.30
2019-05-22T11:33:41.424Z,19.57
2019-05-22T11:36:11.581Z,19.77
2019-05-22T11:38:40.781Z,19.57
2019-05-22T11:41:10.395Z,17.97
2019-05-22T11:43:39.622Z,18.17
2019-05-22T11:46:09.535Z,17.53
2019-05-22T11:48:39.013Z,18.20
2019-05-22T11:51:08.599Z,17.67
2019-05-22T11:53:37.872Z,16.17
2019-05-22T11:56:07.080Z,17.33
2019-05-22T11:58:36.447Z,17.67
2019-05-22T12:01:06.127Z,16.93
2019-05-22T12:03:36.055Z,17.37
2019-05-22T12:06:06.430Z,17.10
2019-05-22T12:08:36.193Z,17.37
2019-05-22T12:11:05.928Z,16.77
2019-05-22T12:13:35.848Z,17.33
2019-05-22T12:16:05.812Z,15.93
2019-05-22T12:18:35.689Z,16.03
2019-05-22T12:21:05.643Z,17.20
2019-05-22T12:23:35.077Z,17.10
2019-05-22T12:26:04.943Z,16.27
2019-05-22T12:28:34.701Z,16.53
2019-05-22T12:31:04.217Z,16.27
2019-05-22T12:33:33.560Z,15.63
2019-05-22T12:36:03.499Z,15.07
2019-05-22T12:38:33.802Z,14.77
2019-05-22T12:41:04.504Z,14.77
2019-05-22T12:43:35.159Z,15.53
2019-05-22T12:46:04.676Z,14.40
2019-05-22T12:48:35.014Z,14.90
2019-05-22T12:51:04.933Z,14.47
2019-05-22T12:53:34.729Z,15.00
2019-05-22T12:56:04.059Z,14.23
2019-05-22T12:58:34.218Z,16.00
2019-05-22T13:01:04.262Z,16.03
2019-05-22T13:03:36.362Z,15.30
2019-05-22T13:06:07.555Z,15.67
2019-05-22T13:08:37.496Z,14.97
2019-05-22T13:11:07.545Z,15.50
2019-05-22T13:13:37.203Z,16.17
2019-05-22T13:16:08.339Z,15.77
2019-05-22T13:18:39.203Z,15.23
2019-05-22T13:21:12.755Z,13.80
2019-05-22T13:23:43.680Z,14.20
2019-05-22T13:26:13.338Z,14.80
2019-05-22T13:28:46.020Z,14.83
2019-05-22T13:31:16.659Z,14.13
2019-05-22T13:33:46.523Z,15.23
2019-05-22T13:36:18.067Z,13.77
2019-05-22T13:38:47.719Z,14.80
2019-05-22T13:41:17.312Z,15.73
2019-05-22T13:43:47.454Z,15.50
2019-05-22T13:46:16.739Z,13.93
2019-05-22T13:48:46.158Z,13.77
2019-05-22T13:51:16.084Z,14.57
2019-05-22T13:53:46.060Z,14.83
2019-05-22T13:56:17.519Z,15.33
2019-05-22T13:58:47.708Z,14.37
2019-05-22T14:01:17.114Z,13.23
2019-05-22T14:03:46.463Z,14.20
2019-05-22T14:06:16.127Z,14.60
2019-05-22T14:08:46.342Z,14.83
2019-05-22T14:11:16.108Z,13.87
2019-05-22T14:13:45.761Z,12.97
2019-05-22T14:16:15.517Z,13.50
2019-05-22T14:18:45.194Z,14.33
2019-05-22T14:21:14.596Z,14.80
2019-05-22T14:23:43.843Z,14.63
2019-05-22T14:26:13.548Z,14.50
2019-05-22T14:28:43.157Z,13.80
2019-05-22T14:31:12.945Z,15.03
2019-05-22T14:33:42.256Z,14.60
2019-05-22T14:36:12.240Z,13.60
2019-05-22T14:38:41.964Z,13.10
2019-05-22T14:41:11.567Z,12.13
2019-05-22T14:43:40.826Z,13.50
2019-05-22T14:46:10.024Z,11.90
2019-05-22T14:48:40.181Z,12.63
2019-05-22T14:51:09.753Z,13.53
2019-05-22T14:53:40.072Z,12.70
2019-05-22T14:56:11.209Z,12.73
2019-05-22T14:58:41.692Z,12.57
2019-05-22T15:01:11.475Z,12.13
2019-05-22T15:03:41.122Z,11.80
2019-05-22T15:06:11.110Z,12.17
2019-05-22T15:08:40.532Z,12.00
2019-05-22T15:11:10.688Z,10.47
2019-05-22T15:13:40.332Z,11.10
2019-05-22T15:16:09.687Z,11.03
2019-05-22T15:18:39.336Z,10.80
2019-05-22T15:21:11.596Z,12.23
2019-05-22T15:23:41.433Z,9.83
2019-05-22T15:26:11.017Z,10.13
2019-05-22T15:28:41.039Z,10.93
2019-05-22T15:31:10.467Z,10.17
2019-05-22T15:33:40.438Z,8.83
2019-05-22T15:36:12.235Z,9.33
2019-05-22T15:38:43.609Z,9.03
2019-05-22T15:41:13.157Z,9.50
2019-05-22T15:43:50.360Z,9.50
2019-05-22T15:46:18.385Z,9.63
2019-05-22T15:48:49.599Z,9.27
2019-05-22T15:51:26.104Z,8.70
2019-05-22T15:53:58.015Z,8.43
2019-05-22T15:56:30.892Z,7.77
2019-05-22T15:59:02.015Z,8.43
2019-05-22T16:01:33.701Z,7.90
2019-05-22T16:04:04.773Z,7.40
2019-05-22T16:06:35.211Z,8.23
2019-05-22T16:09:07.938Z,7.53
2019-05-22T16:11:37.503Z,7.87
2019-05-22T16:14:08.372Z,6.80
2019-05-22T16:16:37.673Z,7.33
2019-05-22T16:19:09.167Z,6.90
2019-05-22T16:21:42.104Z,7.53
2019-05-22T16:24:11.859Z,7.40
2019-05-22T16:26:42.379Z,7.67
2019-05-22T16:29:13.098Z,8.23
2019-05-22T16:31:45.603Z,7.70
2019-05-22T16:34:15.311Z,7.40
2019-05-22T16:36:46.560Z,7.60
2019-05-22T16:39:17.649Z,8.03
2019-05-22T16:41:47.504Z,7.00
2019-05-22T16:44:17.627Z,8.07
2019-05-22T16:46:47.941Z,6.80
2019-05-22T16:49:18.208Z,6.63
2019-05-22T16:51:48.691Z,5.90
2019-05-22T16:54:21.259Z,6.23
2019-05-22T16:56:51.579Z,7.00
2019-05-22T16:59:21.651Z,6.43
2019-05-22T17:02:00.321Z,7.20
2019-05-22T17:04:22.425Z,7.20
2019-05-22T17:06:52.010Z,6.63
2019-05-22T17:09:23.108Z,7.63
2019-05-22T17:11:52.476Z,6.33
2019-05-22T17:14:23.657Z,6.70
2019-05-22T17:16:53.149Z,7.93
2019-05-22T17:19:26.969Z,6.53
2019-05-22T17:21:53.906Z,5.90
2019-05-22T17:24:24.119Z,7.13
2019-05-22T17:26:54.700Z,6.43
2019-05-22T17:29:25.474Z,7.00
2019-05-22T17:31:55.535Z,7.27
2019-05-22T17:34:36.446Z,6.77
2019-05-22T17:37:11.497Z,6.87
2019-05-22T17:39:42.219Z,6.57
2019-05-22T17:42:14.804Z,6.80
2019-05-22T17:44:47.677Z,6.67
2019-05-22T17:47:17.894Z,6.77
2019-05-22T17:49:48.812Z,6.20
2019-05-22T17:52:18.865Z,6.57
2019-05-22T17:54:50.068Z,6.03
2019-05-22T17:57:21.581Z,6.53
2019-05-22T17:59:52.495Z,5.97
2019-05-22T18:02:24.307Z,5.83
2019-05-22T18:04:53.694Z,5.17
2019-05-22T18:07:23.957Z,6.00
2019-05-22T18:09:53.316Z,5.00
2019-05-22T18:12:27.020Z,5.43
2019-05-22T18:14:56.433Z,5.70
2019-05-22T18:17:26.537Z,5.07
2019-05-22T18:19:56.111Z,5.00
2019-05-22T18:22:26.276Z,5.07
2019-05-22T18:24:55.852Z,4.90
2019-05-22T18:27:27.639Z,4.37
2019-05-22T18:29:57.234Z,4.90
2019-05-22T18:32:26.672Z,5.43
2019-05-22T18:34:55.945Z,5.50
2019-05-22T18:37:25.183Z,5.10
2019-05-22T18:39:54.512Z,5.00
2019-05-22T18:42:24.067Z,5.00
2019-05-22T18:44:53.773Z,5.37
2019-05-22T18:47:23.958Z,9.13
2019-05-22T18:49:53.668Z,11.10
2019-05-22T18:52:38.294Z,8.60
2019-05-22T18:54:54.020Z,7.67
2019-05-22T18:57:23.264Z,5.60
2019-05-22T19:00:00.482Z,5.50
2019-05-22T19:02:23.467Z,5.07
2019-05-22T19:04:52.839Z,4.87
2019-05-22T19:07:22.092Z,4.70
2019-05-22T19:09:51.536Z,4.40
2019-05-22T19:12:21.221Z,4.10
2019-05-22T19:14:50.701Z,4.20
2019-05-22T19:17:19.957Z,4.13
2019-05-22T19:19:49.667Z,4.73
2019-05-22T19:22:18.933Z,4.77
2019-05-22T19:24:48.323Z,4.97
2019-05-22T19:27:17.702Z,5.63
2019-05-22T19:29:46.970Z,5.70
2019-05-22T19:32:16.881Z,5.73
2019-05-22T19:34:46.257Z,5.73
2019-05-22T19:37:15.691Z,5.60
2019-05-22T19:39:44.939Z,5.83
2019-05-22T19:42:14.971Z,6.40
2019-05-22T19:44:44.703Z,6.80
2019-05-22T19:47:14.288Z,6.77
2019-05-22T19:49:43.991Z,6.70
2019-05-22T19:52:14.375Z,6.43
2019-05-22T19:54:43.618Z,6.70
2019-05-22T19:57:13.020Z,7.33
2019-05-22T19:59:42.915Z,10.07
2019-05-22T20:02:12.761Z,36.53
2019-05-22T20:04:42.091Z,39.83
2019-05-22T20:07:13.584Z,22.17
2019-05-22T20:09:42.960Z,17.17
2019-05-22T20:12:13.224Z,15.47
2019-05-22T20:14:42.543Z,21.07
2019-05-22T20:17:11.966Z,29.87
2019-05-22T20:19:41.902Z,28.53
2019-05-22T20:22:12.753Z,33.80
2019-05-22T20:24:42.112Z,53.97
2019-05-22T20:27:11.555Z,63.40
2019-05-22T20:29:41.251Z,60.73
2019-05-22T20:32:13.110Z,29.47
2019-05-22T20:34:42.572Z,21.17
2019-05-22T20:37:15.143Z,22.07
2019-05-22T20:39:44.404Z,10.70
2019-05-22T20:42:14.085Z,6.67
2019-05-22T20:44:44.127Z,6.03
2019-05-22T20:47:13.977Z,5.87
2019-05-22T20:49:47.170Z,6.20
2019-05-22T20:52:19.032Z,7.13
2019-05-22T20:54:49.455Z,6.57
2019-05-22T20:57:20.363Z,7.27
2019-05-22T20:59:50.288Z,7.17
2019-05-22T21:02:20.812Z,6.93
2019-05-22T21:04:51.363Z,6.93
2019-05-22T21:07:26.536Z,6.43
2019-05-22T21:09:56.188Z,5.50
2019-05-22T21:12:27.347Z,6.17
2019-05-22T21:14:57.332Z,6.17
2019-05-22T21:17:28.351Z,8.10
2019-05-22T21:19:59.082Z,9.80
2019-05-22T21:22:29.056Z,10.53
2019-05-22T21:24:58.929Z,8.87
2019-05-22T21:27:29.010Z,8.97
2019-05-22T21:29:58.331Z,7.03
2019-05-22T21:32:27.631Z,7.57
2019-05-22T21:34:57.296Z,8.00
2019-05-22T21:37:26.655Z,8.40
2019-05-22T21:39:56.451Z,9.27
2019-05-22T21:42:26.621Z,7.57
2019-05-22T21:44:57.082Z,8.43
2019-05-22T21:47:26.637Z,8.50
2019-05-22T21:49:57.896Z,8.43
2019-05-22T21:52:27.998Z,8.07
2019-05-22T21:54:57.343Z,8.63
2019-05-22T21:57:26.705Z,7.87
2019-05-22T21:59:56.077Z,7.57
2019-05-22T22:02:33.127Z,8.30
2019-05-22T22:05:02.888Z,7.57
2019-05-22T22:07:32.293Z,7.27
2019-05-22T22:10:02.618Z,8.20
2019-05-22T22:12:32.391Z,7.43
2019-05-22T22:15:02.687Z,6.80
2019-05-22T22:17:33.899Z,8.63
2019-05-22T22:20:03.692Z,7.63
2019-05-22T22:22:33.432Z,8.10
2019-05-22T22:25:02.867Z,8.60
2019-05-22T22:27:32.210Z,8.60
2019-05-22T22:30:03.313Z,8.57
2019-05-22T22:32:34.243Z,8.10
2019-05-22T22:35:04.619Z,8.27
2019-05-22T22:37:33.891Z,8.67
2019-05-22T22:40:04.716Z,8.27
2019-05-22T22:42:36.999Z,8.97
2019-05-22T22:45:08.723Z,8.10
2019-05-22T22:47:40.857Z,8.83
2019-05-22T22:50:11.415Z,8.20
2019-05-22T22:52:42.300Z,8.57
2019-05-22T22:55:14.023Z,8.57
2019-05-22T22:57:43.757Z,9.23
2019-05-22T23:00:19.960Z,9.47
2019-05-22T23:02:50.541Z,8.67
2019-05-22T23:05:20.440Z,9.00
2019-05-22T23:07:50.309Z,8.97
2019-05-22T23:10:21.213Z,9.40
2019-05-22T23:12:54.478Z,8.80
2019-05-22T23:15:25.672Z,9.43
2019-05-22T23:17:55.638Z,9.00
2019-05-22T23:20:23.372Z,9.50
2019-05-22T23:22:51.723Z,9.60
2019-05-22T23:25:21.459Z,9.47
2019-05-22T23:27:51.327Z,10.00
2019-05-22T23:30:22.796Z,8.80
2019-05-22T23:32:54.352Z,9.07
2019-05-22T23:35:24.852Z,8.53
2019-05-22T23:37:54.924Z,9.40
2019-05-22T23:40:28.595Z,9.03
2019-05-22T23:42:59.298Z,9.17
2019-05-22T23:45:28.616Z,9.13
2019-05-22T23:48:06.078Z,8.57
2019-05-22T23:50:38.111Z,9.00
2019-05-22T23:53:10.480Z,8.47
2019-05-22T23:55:40.866Z,9.07
2019-05-22T23:58:12.826Z,7.97
